createdAt,value
2023-01-29T00:00:00.582Z,8.70
2023-01-29T00:02:28.820Z,8.70
2023-01-29T00:05:09.949Z,8.70
2023-01-29T00:07:45.530Z,8.70
2023-01-29T00:10:14.162Z,8.70
2023-01-29T00:12:42.508Z,8.70
2023-01-29T00:15:11.014Z,8.70
2023-01-29T00:17:39.432Z,8.60
2023-01-29T00:20:10.564Z,8.70
2023-01-29T00:22:38.834Z,8.70
2023-01-29T00:25:08.180Z,8.70
2023-01-29T00:27:36.449Z,8.70
2023-01-29T00:30:13.065Z,8.60
2023-01-29T00:32:41.819Z,8.60
2023-01-29T00:35:11.956Z,8.60
2023-01-29T00:37:40.208Z,8.60
2023-01-29T00:40:09.804Z,8.60
2023-01-29T00:42:55.673Z,8.60
2023-01-29T00:45:23.954Z,8.70
2023-01-29T00:47:52.574Z,8.60
2023-01-29T00:50:22.236Z,8.70
2023-01-29T00:52:51.857Z,8.60
2023-01-29T00:55:20.500Z,8.60
2023-01-29T00:57:48.771Z,8.60
2023-01-29T01:00:19.309Z,8.60
2023-01-29T01:03:05.080Z,8.60
2023-01-29T01:05:35.218Z,8.60
2023-01-29T01:08:03.608Z,8.60
2023-01-29T01:10:33.054Z,8.60
2023-01-29T01:13:03.725Z,8.60
2023-01-29T01:15:35.050Z,8.60
2023-01-29T01:18:04.775Z,8.50
2023-01-29T01:20:36.640Z,8.50
2023-01-29T01:23:05.487Z,8.50
2023-01-29T01:25:33.786Z,8.50
2023-01-29T01:28:02.051Z,8.50
2023-01-29T01:30:30.471Z,8.50
2023-01-29T01:32:58.839Z,8.50
2023-01-29T01:35:27.102Z,8.40
2023-01-29T01:37:56.729Z,8.40
2023-01-29T01:40:26.673Z,8.40
2023-01-29T01:42:57.216Z,8.40
2023-01-29T01:45:29.915Z,8.40
2023-01-29T01:48:02.422Z,8.30
2023-01-29T01:50:34.276Z,8.30
2023-01-29T01:53:08.515Z,8.30
2023-01-29T01:55:41.034Z,8.30
2023-01-29T01:58:15.951Z,8.30
2023-01-29T02:00:44.463Z,8.30
2023-01-29T02:03:31.676Z,8.20
2023-01-29T02:06:19.004Z,8.20
2023-01-29T02:09:11.942Z,8.20
2023-01-29T02:11:40.650Z,8.20
2023-01-29T02:14:09.409Z,8.20
2023-01-29T02:16:37.968Z,8.20
2023-01-29T02:19:12.372Z,8.20
2023-01-29T02:21:58.865Z,8.20
2023-01-29T02:25:14.579Z,8.10
2023-01-29T02:28:05.073Z,8.20
2023-01-29T02:30:37.639Z,8.10
2023-01-29T02:33:15.427Z,8.10
2023-01-29T02:35:47.686Z,8.10
2023-01-29T02:38:22.928Z,8.10
2023-01-29T02:40:55.316Z,8.10
2023-01-29T02:43:32.003Z,8.10
2023-01-29T02:46:12.689Z,8.10
2023-01-29T02:48:46.061Z,8.10
2023-01-29T02:51:21.257Z,8.00
2023-01-29T02:53:57.029Z,8.10
2023-01-29T02:56:31.511Z,8.00
2023-01-29T02:59:07.283Z,8.10
2023-01-29T03:01:41.019Z,8.10
2023-01-29T03:04:12.964Z,8.10
2023-01-29T03:06:46.285Z,8.10
2023-01-29T03:09:21.039Z,8.10
2023-01-29T03:11:53.588Z,8.20
2023-01-29T03:14:51.458Z,8.20
2023-01-29T03:17:21.847Z,8.10
2023-01-29T03:19:51.178Z,8.10
2023-01-29T03:22:23.323Z,8.10
2023-01-29T03:25:11.952Z,8.10
2023-01-29T03:28:03.530Z,8.10
2023-01-29T03:30:55.194Z,8.10
2023-01-29T03:33:27.227Z,8.10
2023-01-29T03:36:00.921Z,8.10
2023-01-29T03:38:29.809Z,8.00
2023-01-29T03:41:03.413Z,8.00
2023-01-29T03:43:36.182Z,8.00
2023-01-29T03:46:14.407Z,8.00
2023-01-29T03:48:54.288Z,8.00
2023-01-29T03:51:29.447Z,8.00
2023-01-29T03:54:07.090Z,8.00
2023-01-29T03:56:46.748Z,8.00
2023-01-29T03:59:24.356Z,8.00
2023-01-29T04:01:57.126Z,8.00
2023-01-29T04:04:29.365Z,8.00
2023-01-29T04:07:03.528Z,8.00
2023-01-29T04:09:37.618Z,8.00
2023-01-29T04:12:09.766Z,8.00
2023-01-29T04:14:39.200Z,8.00
2023-01-29T04:17:14.131Z,7.90
2023-01-29T04:19:42.686Z,7.90
2023-01-29T04:22:15.714Z,7.80
2023-01-29T04:24:44.696Z,7.80
2023-01-29T04:27:27.510Z,7.80
2023-01-29T04:30:12.684Z,7.70
2023-01-29T04:32:53.979Z,7.70
2023-01-29T04:35:31.586Z,7.70
2023-01-29T04:38:09.121Z,7.70
2023-01-29T04:40:49.802Z,7.60
2023-01-29T04:43:27.449Z,7.60
2023-01-29T04:46:09.387Z,7.60
2023-01-29T04:49:01.445Z,7.50
2023-01-29T04:51:38.549Z,7.60
2023-01-29T04:54:13.956Z,7.50
2023-01-29T04:56:50.420Z,7.50
2023-01-29T04:59:24.745Z,7.50
2023-01-29T05:01:53.606Z,7.50
2023-01-29T05:04:24.436Z,7.40
2023-01-29T05:06:53.274Z,7.40
2023-01-29T05:09:22.534Z,7.40
2023-01-29T05:11:52.027Z,7.40
2023-01-29T05:14:21.774Z,7.40
2023-01-29T05:16:54.630Z,7.30
2023-01-29T05:19:24.336Z,7.30
2023-01-29T05:21:52.591Z,7.30
2023-01-29T05:24:22.590Z,7.30
2023-01-29T05:27:10.412Z,7.30
2023-01-29T05:29:38.794Z,7.30
2023-01-29T05:32:07.471Z,7.30
2023-01-29T05:34:37.268Z,7.30
2023-01-29T05:37:05.538Z,7.30
2023-01-29T05:39:33.846Z,7.30
2023-01-29T05:42:02.205Z,7.30
2023-01-29T05:44:30.528Z,7.30
2023-01-29T05:46:58.747Z,7.30
2023-01-29T05:49:27.076Z,7.30
2023-01-29T05:51:56.735Z,7.30
2023-01-29T05:54:24.992Z,7.20
2023-01-29T05:56:53.215Z,7.30
2023-01-29T05:59:21.762Z,7.30
2023-01-29T06:01:50.034Z,7.30
2023-01-29T06:04:18.290Z,7.30
2023-01-29T06:06:46.608Z,7.30
2023-01-29T06:09:16.284Z,7.30
2023-01-29T06:11:44.673Z,7.40
2023-01-29T06:14:12.958Z,7.40
2023-01-29T06:16:41.279Z,7.50
2023-01-29T06:19:09.603Z,7.50
2023-01-29T06:21:37.903Z,7.50
2023-01-29T06:24:06.915Z,7.50
2023-01-29T06:26:36.961Z,7.50
2023-01-29T06:29:05.231Z,7.50
2023-01-29T06:31:38.906Z,7.60
2023-01-29T06:34:08.123Z,7.60
2023-01-29T06:36:36.792Z,7.50
2023-01-29T06:39:05.766Z,7.60
2023-01-29T06:41:34.222Z,7.60
2023-01-29T06:44:03.948Z,7.50
2023-01-29T06:46:32.537Z,7.60
2023-01-29T06:49:01.416Z,7.50
2023-01-29T06:51:29.861Z,7.60
2023-01-29T06:53:58.178Z,7.50
2023-01-29T06:56:26.858Z,7.50
2023-01-29T06:58:55.135Z,7.50
2023-01-29T07:01:35.632Z,7.50
2023-01-29T07:04:04.959Z,7.50
2023-01-29T07:06:33.562Z,7.50
2023-01-29T07:09:02.256Z,7.50
2023-01-29T07:11:30.597Z,7.50
2023-01-29T07:13:58.879Z,7.50
2023-01-29T07:16:28.684Z,7.50
2023-01-29T07:18:57.116Z,7.50
2023-01-29T07:21:25.390Z,7.50
2023-01-29T07:23:53.743Z,7.60
2023-01-29T07:26:22.150Z,7.50
2023-01-29T07:28:50.528Z,7.50
2023-01-29T07:31:19.014Z,7.60
2023-01-29T07:33:48.800Z,7.60
2023-01-29T07:36:17.030Z,7.60
2023-01-29T07:38:45.302Z,7.60
2023-01-29T07:41:13.769Z,7.60
2023-01-29T07:43:42.070Z,7.60
2023-01-29T07:46:10.420Z,7.60
2023-01-29T07:48:38.819Z,7.50
2023-01-29T07:51:08.556Z,7.60
2023-01-29T07:53:37.101Z,7.60
2023-01-29T07:56:05.746Z,7.60
2023-01-29T07:58:36.454Z,7.50
2023-01-29T08:01:07.856Z,7.60
2023-01-29T08:03:36.594Z,7.50
2023-01-29T08:06:05.499Z,7.50
2023-01-29T08:08:36.323Z,7.60
2023-01-29T08:11:05.784Z,7.50
2023-01-29T08:13:34.399Z,7.50
2023-01-29T08:16:03.940Z,7.50
2023-01-29T08:18:32.669Z,7.50
2023-01-29T08:21:02.121Z,7.50
2023-01-29T08:23:30.492Z,7.60
2023-01-29T08:26:00.323Z,7.50
2023-01-29T08:28:28.684Z,7.60
2023-01-29T08:30:57.024Z,7.60
2023-01-29T08:33:37.971Z,7.70
2023-01-29T08:36:07.489Z,7.70
2023-01-29T08:38:35.779Z,7.80
2023-01-29T08:41:06.035Z,7.80
2023-01-29T08:43:35.391Z,7.80
2023-01-29T08:46:05.436Z,7.80
2023-01-29T08:48:34.113Z,7.90
2023-01-29T08:51:04.591Z,7.90
2023-01-29T08:53:33.320Z,7.90
2023-01-29T08:56:01.610Z,8.00
2023-01-29T08:58:31.345Z,8.00
2023-01-29T09:01:07.938Z,8.00
2023-01-29T09:03:36.338Z,8.00
2023-01-29T09:06:04.756Z,8.10
2023-01-29T09:08:33.009Z,8.10
2023-01-29T09:11:01.430Z,8.20
2023-01-29T09:13:31.112Z,8.20
2023-01-29T09:16:01.605Z,8.20
2023-01-29T09:18:30.912Z,8.20
2023-01-29T09:20:59.618Z,8.20
2023-01-29T09:23:27.915Z,8.20
2023-01-29T09:25:56.169Z,8.30
2023-01-29T09:28:24.696Z,8.30
2023-01-29T09:30:54.576Z,8.30
2023-01-29T09:33:24.724Z,8.40
2023-01-29T09:35:53.121Z,8.40
2023-01-29T09:38:21.335Z,8.40
2023-01-29T09:40:57.606Z,8.50
2023-01-29T09:43:32.675Z,8.50
2023-01-29T09:46:06.589Z,8.50
2023-01-29T09:48:36.532Z,8.60
2023-01-29T09:51:13.163Z,8.60
2023-01-29T09:53:47.384Z,8.60
2023-01-29T09:56:21.195Z,8.60
2023-01-29T09:58:49.779Z,8.60
2023-01-29T10:01:25.280Z,8.60
2023-01-29T10:04:22.289Z,8.70
2023-01-29T10:07:05.144Z,8.70
2023-01-29T10:10:03.592Z,8.70
2023-01-29T10:12:46.490Z,8.70
2023-01-29T10:15:28.735Z,8.70
2023-01-29T10:18:28.103Z,8.70
2023-01-29T10:21:04.614Z,8.80
2023-01-29T10:23:35.728Z,8.80
2023-01-29T10:26:04.234Z,8.90
2023-01-29T10:28:38.401Z,8.90
2023-01-29T10:31:11.464Z,8.90
2023-01-29T10:33:49.616Z,9.10
2023-01-29T10:36:36.009Z,9.10
2023-01-29T10:39:04.496Z,9.20
2023-01-29T10:42:05.823Z,9.20
2023-01-29T10:44:50.637Z,9.20
2023-01-29T10:47:55.538Z,9.30
2023-01-29T10:50:37.318Z,9.30
2023-01-29T10:53:21.169Z,9.30
2023-01-29T10:56:02.512Z,9.30
2023-01-29T10:58:41.306Z,9.40
2023-01-29T11:01:10.750Z,9.40
2023-01-29T11:03:41.204Z,9.40
2023-01-29T11:06:17.824Z,9.40
2023-01-29T11:08:53.559Z,9.40
2023-01-29T11:11:23.709Z,9.40
2023-01-29T11:13:57.454Z,9.40
2023-01-29T11:16:26.775Z,9.40
2023-01-29T11:18:58.190Z,9.40
2023-01-29T11:21:30.075Z,9.40
2023-01-29T11:24:12.822Z,9.40
2023-01-29T11:26:43.459Z,9.40
2023-01-29T11:29:35.613Z,9.40
2023-01-29T11:32:07.641Z,9.40
2023-01-29T11:34:36.162Z,9.40
2023-01-29T11:37:16.836Z,9.40
2023-01-29T11:39:47.417Z,9.40
2023-01-29T11:42:22.058Z,9.40
2023-01-29T11:44:50.853Z,9.40
2023-01-29T11:47:23.969Z,9.50
2023-01-29T11:49:54.593Z,9.60
2023-01-29T11:52:26.969Z,9.70
2023-01-29T11:54:58.727Z,9.70
2023-01-29T11:57:31.424Z,9.70
2023-01-29T12:00:02.520Z,9.80
2023-01-29T12:02:35.624Z,9.80
2023-01-29T12:05:08.084Z,10.00
2023-01-29T12:07:43.777Z,10.00
2023-01-29T12:10:34.429Z,10.10
2023-01-29T12:13:08.540Z,10.20
2023-01-29T12:15:37.107Z,10.20
2023-01-29T12:18:13.369Z,10.30
2023-01-29T12:20:46.263Z,10.30
2023-01-29T12:23:27.010Z,10.40
2023-01-29T12:26:02.932Z,10.40
2023-01-29T12:28:43.993Z,10.40
2023-01-29T12:31:25.152Z,10.40
2023-01-29T12:33:59.217Z,10.40
2023-01-29T12:36:33.203Z,10.40
2023-01-29T12:39:02.921Z,10.40
2023-01-29T12:41:37.668Z,10.40
2023-01-29T12:44:11.746Z,10.50
2023-01-29T12:46:44.538Z,10.50
2023-01-29T12:49:19.634Z,10.50
2023-01-29T12:51:56.895Z,10.60
2023-01-29T12:54:34.115Z,10.60
2023-01-29T12:57:05.668Z,10.60
2023-01-29T12:59:40.584Z,10.70
2023-01-29T13:02:20.207Z,10.70
2023-01-29T13:04:56.362Z,10.80
2023-01-29T13:07:29.385Z,10.80
2023-01-29T13:10:05.856Z,10.80
2023-01-29T13:12:35.982Z,10.80
2023-01-29T13:15:08.040Z,10.80
2023-01-29T13:17:41.798Z,10.80
2023-01-29T13:20:15.039Z,10.90
2023-01-29T13:22:46.173Z,10.90
2023-01-29T13:25:18.314Z,10.90
2023-01-29T13:27:47.950Z,10.90
2023-01-29T13:30:27.174Z,10.90
2023-01-29T13:33:09.348Z,11.00
2023-01-29T13:35:41.559Z,11.00
2023-01-29T13:38:26.048Z,11.00
2023-01-29T13:41:00.464Z,11.00
2023-01-29T13:43:31.853Z,11.20
2023-01-29T13:46:10.417Z,11.20
2023-01-29T13:48:45.283Z,11.30
2023-01-29T13:51:20.212Z,11.40
2023-01-29T13:53:56.451Z,11.40
2023-01-29T13:56:51.691Z,11.50
2023-01-29T13:59:25.943Z,11.50
2023-01-29T14:02:05.858Z,11.50
2023-01-29T14:04:34.298Z,11.50
2023-01-29T14:07:04.193Z,11.50
2023-01-29T14:10:02.136Z,11.50
2023-01-29T14:12:43.097Z,11.50
2023-01-29T14:15:24.276Z,11.60
2023-01-29T14:18:19.655Z,11.70
2023-01-29T14:21:00.640Z,11.70
2023-01-29T14:23:37.894Z,11.80
2023-01-29T14:26:19.238Z,11.80
2023-01-29T14:28:59.679Z,11.80
2023-01-29T14:31:33.301Z,11.80
2023-01-29T14:34:03.195Z,11.70
2023-01-29T14:36:40.714Z,11.70
2023-01-29T14:39:25.556Z,11.70
2023-01-29T14:41:54.339Z,11.70
2023-01-29T14:45:01.297Z,11.70
2023-01-29T14:47:57.815Z,11.70
2023-01-29T14:50:57.583Z,11.70
2023-01-29T14:53:32.742Z,11.70
2023-01-29T14:56:04.352Z,11.70
2023-01-29T14:58:43.003Z,11.70
2023-01-29T15:01:20.741Z,11.70
2023-01-29T15:03:53.102Z,11.60
2023-01-29T15:06:28.038Z,11.60
2023-01-29T15:09:03.834Z,11.60
2023-01-29T15:11:37.263Z,11.70
2023-01-29T15:14:28.113Z,11.70
2023-01-29T15:17:06.020Z,11.70
2023-01-29T15:19:37.808Z,11.70
2023-01-29T15:22:11.857Z,11.70
2023-01-29T15:24:41.705Z,11.70
2023-01-29T15:27:16.293Z,11.80
2023-01-29T15:29:49.016Z,11.80
2023-01-29T15:32:30.765Z,11.80
2023-01-29T15:35:02.054Z,11.90
2023-01-29T15:37:33.228Z,11.90
2023-01-29T15:40:02.353Z,11.90
2023-01-29T15:42:42.461Z,12.00
2023-01-29T15:45:23.654Z,11.90
2023-01-29T15:47:52.885Z,11.90
2023-01-29T15:50:23.070Z,11.90
2023-01-29T15:52:53.199Z,11.90
2023-01-29T15:55:24.361Z,11.90
2023-01-29T15:57:53.064Z,11.90
2023-01-29T16:00:27.445Z,12.00
2023-01-29T16:02:56.567Z,11.90
2023-01-29T16:05:30.152Z,12.00
2023-01-29T16:08:00.567Z,12.00
2023-01-29T16:10:31.271Z,12.00
2023-01-29T16:13:00.555Z,12.00
2023-01-29T16:15:34.652Z,12.00
2023-01-29T16:18:05.804Z,12.00
2023-01-29T16:20:42.158Z,12.00
2023-01-29T16:23:20.045Z,12.00
2023-01-29T16:25:49.885Z,12.00
2023-01-29T16:28:19.151Z,12.00
2023-01-29T16:30:47.476Z,12.00
2023-01-29T16:33:18.271Z,11.90
2023-01-29T16:35:53.905Z,12.00
2023-01-29T16:38:29.984Z,12.00
2023-01-29T16:41:15.903Z,12.00
2023-01-29T16:43:50.340Z,12.00
2023-01-29T16:46:37.204Z,12.00
2023-01-29T16:49:45.072Z,12.00
2023-01-29T16:52:24.381Z,11.90
2023-01-29T16:54:53.070Z,12.00
2023-01-29T16:57:25.289Z,11.90
2023-01-29T16:59:56.684Z,11.90
2023-01-29T17:02:30.559Z,11.90
2023-01-29T17:05:02.103Z,11.90
2023-01-29T17:07:32.917Z,11.80
2023-01-29T17:10:04.092Z,11.80
2023-01-29T17:12:35.844Z,11.70
2023-01-29T17:15:07.068Z,11.70
2023-01-29T17:17:37.257Z,11.70
2023-01-29T17:20:15.021Z,11.70
2023-01-29T17:22:47.173Z,11.70
2023-01-29T17:25:17.025Z,11.70
2023-01-29T17:27:51.747Z,11.80
2023-01-29T17:30:22.497Z,11.80
2023-01-29T17:32:51.038Z,11.80
2023-01-29T17:35:19.758Z,11.70
2023-01-29T17:37:49.636Z,11.70
2023-01-29T17:40:29.479Z,11.70
2023-01-29T17:42:57.729Z,11.60
2023-01-29T17:45:26.186Z,11.60
2023-01-29T17:47:54.479Z,11.60
2023-01-29T17:50:25.976Z,11.60
2023-01-29T17:52:58.806Z,11.50
2023-01-29T17:55:27.458Z,11.50
2023-01-29T17:57:55.936Z,11.60
2023-01-29T18:00:26.784Z,11.60
2023-01-29T18:02:55.234Z,11.60
2023-01-29T18:05:23.574Z,11.70
2023-01-29T18:07:54.834Z,11.70
2023-01-29T18:10:24.626Z,11.70
2023-01-29T18:12:52.973Z,11.70
2023-01-29T18:15:21.515Z,11.70
2023-01-29T18:17:52.956Z,11.70
2023-01-29T18:20:23.804Z,11.80
2023-01-29T18:22:52.429Z,11.80
2023-01-29T18:25:21.369Z,11.80
2023-01-29T18:27:51.666Z,11.80
2023-01-29T18:30:20.325Z,11.90
2023-01-29T18:32:48.693Z,11.90
2023-01-29T18:35:18.187Z,11.90
2023-01-29T18:37:46.826Z,11.90
2023-01-29T18:40:17.449Z,12.00
2023-01-29T18:42:46.127Z,12.00
2023-01-29T18:45:16.896Z,12.00
2023-01-29T18:47:46.178Z,12.00
2023-01-29T18:50:14.547Z,12.00
2023-01-29T18:52:44.775Z,12.00
2023-01-29T18:55:13.468Z,12.00
2023-01-29T18:58:27.945Z,12.00
2023-01-29T19:00:31.488Z,12.00
2023-01-29T19:02:59.820Z,12.00
2023-01-29T19:05:28.622Z,12.00
2023-01-29T19:07:57.068Z,12.00
2023-01-29T19:10:25.342Z,12.00
2023-01-29T19:12:53.781Z,12.00
2023-01-29T19:15:22.829Z,12.00
2023-01-29T19:17:53.153Z,12.00
2023-01-29T19:20:21.768Z,11.90
2023-01-29T19:22:50.297Z,11.90
2023-01-29T19:25:20.056Z,11.90
2023-01-29T19:27:48.790Z,11.90
2023-01-29T19:30:19.927Z,12.00
2023-01-29T19:32:48.443Z,11.90
2023-01-29T19:35:18.763Z,11.90
2023-01-29T19:37:47.707Z,11.90
2023-01-29T19:40:16.047Z,11.80
2023-01-29T19:42:44.807Z,11.80
2023-01-29T19:45:13.497Z,11.70
2023-01-29T19:47:43.104Z,11.70
2023-01-29T19:50:13.139Z,11.60
2023-01-29T19:52:51.712Z,11.60
2023-01-29T19:55:21.558Z,11.50
2023-01-29T19:57:50.249Z,11.40
2023-01-29T20:00:19.782Z,11.40
2023-01-29T20:02:48.065Z,11.30
2023-01-29T20:05:18.497Z,11.30
2023-01-29T20:07:49.866Z,11.20
2023-01-29T20:10:18.934Z,11.20
2023-01-29T20:12:47.953Z,11.10
2023-01-29T20:15:16.427Z,11.00
2023-01-29T20:17:45.784Z,11.00
2023-01-29T20:20:16.698Z,11.00
2023-01-29T20:22:45.272Z,10.90
2023-01-29T20:25:16.503Z,10.90
2023-01-29T20:27:44.812Z,10.90
2023-01-29T20:30:13.902Z,10.90
2023-01-29T20:32:42.186Z,10.90
2023-01-29T20:35:11.443Z,10.90
2023-01-29T20:37:39.816Z,10.90
2023-01-29T20:40:09.059Z,10.80
2023-01-29T20:42:38.696Z,10.80
2023-01-29T20:45:07.688Z,10.80
2023-01-29T20:47:35.971Z,10.70
2023-01-29T20:50:08.614Z,10.70
2023-01-29T20:52:37.185Z,10.70
2023-01-29T20:55:07.427Z,10.60
2023-01-29T20:57:36.463Z,10.60
2023-01-29T21:00:07.364Z,10.60
2023-01-29T21:02:35.833Z,10.50
2023-01-29T21:05:04.209Z,10.50
2023-01-29T21:07:32.652Z,10.50
2023-01-29T21:10:00.971Z,10.50
2023-01-29T21:12:29.246Z,10.50
2023-01-29T21:14:57.508Z,10.50
2023-01-29T21:17:28.170Z,10.40
2023-01-29T21:19:56.507Z,10.40
2023-01-29T21:22:25.186Z,10.40
2023-01-29T21:24:53.491Z,10.30
2023-01-29T21:27:21.776Z,10.30
2023-01-29T21:29:50.023Z,10.30
2023-01-29T21:32:18.912Z,10.30
2023-01-29T21:34:48.644Z,10.30
2023-01-29T21:37:17.218Z,10.30
2023-01-29T21:39:45.976Z,10.20
2023-01-29T21:42:31.599Z,10.20
2023-01-29T21:45:00.019Z,10.20
2023-01-29T21:47:28.399Z,10.10
2023-01-29T21:49:58.090Z,10.00
2023-01-29T21:52:26.442Z,10.00
2023-01-29T21:54:54.723Z,9.90
2023-01-29T21:57:26.721Z,9.80
2023-01-29T21:59:55.487Z,9.80
2023-01-29T22:02:26.516Z,9.80
2023-01-29T22:05:05.330Z,9.70
2023-01-29T22:07:46.019Z,9.70
2023-01-29T22:10:14.790Z,9.70
2023-01-29T22:12:43.861Z,9.70
2023-01-29T22:15:13.430Z,9.70
2023-01-29T22:17:42.285Z,9.80
2023-01-29T22:20:12.366Z,9.80
2023-01-29T22:22:40.750Z,9.80
2023-01-29T22:25:11.244Z,9.70
2023-01-29T22:27:39.707Z,9.70
2023-01-29T22:30:09.364Z,9.70
2023-01-29T22:32:37.699Z,9.60
2023-01-29T22:35:06.769Z,9.60
2023-01-29T22:37:35.036Z,9.60
2023-01-29T22:40:03.304Z,9.60
2023-01-29T22:42:32.931Z,9.50
2023-01-29T22:45:01.199Z,9.50
2023-01-29T22:47:29.645Z,9.50
2023-01-29T22:49:57.957Z,9.60
2023-01-29T22:52:28.017Z,9.50
2023-01-29T22:54:56.879Z,9.50
2023-01-29T22:57:25.387Z,9.50
2023-01-29T22:59:55.445Z,9.50
2023-01-29T23:02:23.885Z,9.50
2023-01-29T23:04:52.158Z,9.40
2023-01-29T23:07:20.446Z,9.40
2023-01-29T23:09:48.687Z,9.30
2023-01-29T23:12:17.221Z,9.30
2023-01-29T23:14:45.509Z,9.30
2023-01-29T23:17:15.233Z,9.20
2023-01-29T23:19:43.565Z,9.20
2023-01-29T23:22:12.006Z,9.20
2023-01-29T23:24:40.288Z,9.20
2023-01-29T23:27:17.202Z,9.20
2023-01-29T23:29:47.113Z,9.20
2023-01-29T23:32:18.821Z,9.20
2023-01-29T23:34:47.149Z,9.20
2023-01-29T23:37:15.689Z,9.20
2023-01-29T23:39:44.079Z,9.20
2023-01-29T23:42:12.432Z,9.30
2023-01-29T23:44:41.195Z,9.30
2023-01-29T23:47:09.915Z,9.30
2023-01-29T23:49:39.632Z,9.30
2023-01-29T23:52:07.899Z,9.30
2023-01-29T23:54:36.156Z,9.30
2023-01-29T23:57:04.427Z,9.30
2023-01-29T23:59:32.744Z,9.30
